sensor_id;sensor_type;location;lat;lon;timestamp;P1;durP1;ratioP1;P2;durP2;ratioP2
9138;SDS011;4604;48.616;9.548;2023-02-04T00:01:58;2.73;;;2.13;;
9138;SDS011;4604;48.616;9.548;2023-02-04T00:04:24;3.23;;;2.47;;
9138;SDS011;4604;48.616;9.548;2023-02-04T00:06:52;5.50;;;2.50;;
9138;SDS011;4604;48.616;9.548;2023-02-04T00:09:19;3.70;;;2.60;;
9138;SDS011;4604;48.616;9.548;2023-02-04T00:11:45;4.00;;;2.40;;
9138;SDS011;4604;48.616;9.548;2023-02-04T00:14:12;3.00;;;2.43;;
9138;SDS011;4604;48.616;9.548;2023-02-04T00:16:39;3.10;;;2.47;;
9138;SDS011;4604;48.616;9.548;2023-02-04T00:19:05;4.77;;;3.20;;
9138;SDS011;4604;48.616;9.548;2023-02-04T00:21:32;5.83;;;3.07;;
9138;SDS011;4604;48.616;9.548;2023-02-04T00:24:00;3.90;;;2.70;;
9138;SDS011;4604;48.616;9.548;2023-02-04T00:26:26;4.07;;;2.77;;
9138;SDS011;4604;48.616;9.548;2023-02-04T00:28:53;4.73;;;2.67;;
9138;SDS011;4604;48.616;9.548;2023-02-04T00:31:19;4.23;;;2.90;;
9138;SDS011;4604;48.616;9.548;2023-02-04T00:33:46;3.97;;;2.70;;
9138;SDS011;4604;48.616;9.548;2023-02-04T00:36:13;3.63;;;2.60;;
9138;SDS011;4604;48.616;9.548;2023-02-04T00:38:39;4.03;;;3.00;;
9138;SDS011;4604;48.616;9.548;2023-02-04T00:41:07;3.70;;;2.80;;
9138;SDS011;4604;48.616;9.548;2023-02-04T00:43:34;4.90;;;3.00;;
9138;SDS011;4604;48.616;9.548;2023-02-04T00:46:00;3.00;;;2.33;;
9138;SDS011;4604;48.616;9.548;2023-02-04T00:48:27;3.50;;;2.57;;
9138;SDS011;4604;48.616;9.548;2023-02-04T00:50:54;2.90;;;2.33;;
9138;SDS011;4604;48.616;9.548;2023-02-04T00:53:20;2.87;;;2.47;;
9138;SDS011;4604;48.616;9.548;2023-02-04T00:55:47;3.50;;;2.50;;
9138;SDS011;4604;48.616;9.548;2023-02-04T00:58:15;3.53;;;2.60;;
9138;SDS011;4604;48.616;9.548;2023-02-04T01:00:42;3.67;;;2.50;;
9138;SDS011;4604;48.616;9.548;2023-02-04T01:03:08;3.20;;;2.43;;
9138;SDS011;4604;48.616;9.548;2023-02-04T01:05:36;4.30;;;2.93;;
9138;SDS011;4604;48.616;9.548;2023-02-04T01:08:03;3.13;;;2.23;;
9138;SDS011;4604;48.616;9.548;2023-02-04T01:10:30;3.83;;;2.57;;
9138;SDS011;4604;48.616;9.548;2023-02-04T01:12:56;3.27;;;2.50;;
9138;SDS011;4604;48.616;9.548;2023-02-04T01:15:24;2.80;;;2.50;;
9138;SDS011;4604;48.616;9.548;2023-02-04T01:17:51;4.50;;;2.67;;
9138;SDS011;4604;48.616;9.548;2023-02-04T01:20:18;4.13;;;2.53;;
9138;SDS011;4604;48.616;9.548;2023-02-04T01:22:45;3.57;;;2.33;;
9138;SDS011;4604;48.616;9.548;2023-02-04T01:25:12;3.63;;;2.60;;
9138;SDS011;4604;48.616;9.548;2023-02-04T01:27:38;3.83;;;2.43;;
9138;SDS011;4604;48.616;9.548;2023-02-04T01:30:05;3.77;;;2.43;;
9138;SDS011;4604;48.616;9.548;2023-02-04T01:32:34;4.20;;;2.40;;
9138;SDS011;4604;48.616;9.548;2023-02-04T01:35:01;3.73;;;2.70;;
9138;SDS011;4604;48.616;9.548;2023-02-04T01:37:27;3.03;;;2.03;;
9138;SDS011;4604;48.616;9.548;2023-02-04T01:39:54;3.90;;;2.80;;
9138;SDS011;4604;48.616;9.548;2023-02-04T01:42:21;3.50;;;2.50;;
9138;SDS011;4604;48.616;9.548;2023-02-04T01:44:47;3.70;;;2.63;;
9138;SDS011;4604;48.616;9.548;2023-02-04T01:47:14;2.43;;;2.10;;
9138;SDS011;4604;48.616;9.548;2023-02-04T01:49:42;2.80;;;2.07;;
9138;SDS011;4604;48.616;9.548;2023-02-04T01:52:10;4.03;;;2.30;;
9138;SDS011;4604;48.616;9.548;2023-02-04T01:54:37;2.97;;;2.30;;
9138;SDS011;4604;48.616;9.548;2023-02-04T01:57:05;3.00;;;2.30;;
9138;SDS011;4604;48.616;9.548;2023-02-04T01:59:34;3.83;;;2.70;;
9138;SDS011;4604;48.616;9.548;2023-02-04T02:02:35;3.00;;;2.27;;
9138;SDS011;4604;48.616;9.548;2023-02-04T02:05:05;3.90;;;2.17;;
9138;SDS011;4604;48.616;9.548;2023-02-04T02:07:32;3.20;;;2.40;;
9138;SDS011;4604;48.616;9.548;2023-02-04T02:09:59;2.90;;;2.40;;
9138;SDS011;4604;48.616;9.548;2023-02-04T02:12:26;5.40;;;2.60;;
9138;SDS011;4604;48.616;9.548;2023-02-04T02:14:53;5.23;;;2.80;;
9138;SDS011;4604;48.616;9.548;2023-02-04T02:17:20;5.10;;;2.80;;
9138;SDS011;4604;48.616;9.548;2023-02-04T02:19:46;4.57;;;2.63;;
9138;SDS011;4604;48.616;9.548;2023-02-04T02:22:16;3.87;;;3.03;;
9138;SDS011;4604;48.616;9.548;2023-02-04T02:24:48;3.67;;;2.80;;
9138;SDS011;4604;48.616;9.548;2023-02-04T02:27:15;3.00;;;2.70;;
9138;SDS011;4604;48.616;9.548;2023-02-04T02:29:42;4.20;;;3.10;;
9138;SDS011;4604;48.616;9.548;2023-02-04T02:32:09;6.70;;;3.23;;
9138;SDS011;4604;48.616;9.548;2023-02-04T02:34:37;3.37;;;2.63;;
9138;SDS011;4604;48.616;9.548;2023-02-04T02:37:04;5.47;;;2.87;;
9138;SDS011;4604;48.616;9.548;2023-02-04T02:39:33;3.77;;;2.30;;
9138;SDS011;4604;48.616;9.548;2023-02-04T02:42:01;4.13;;;2.40;;
9138;SDS011;4604;48.616;9.548;2023-02-04T02:44:28;3.57;;;2.53;;
9138;SDS011;4604;48.616;9.548;2023-02-04T02:46:57;5.17;;;2.40;;
9138;SDS011;4604;48.616;9.548;2023-02-04T02:49:24;5.23;;;2.43;;
9138;SDS011;4604;48.616;9.548;2023-02-04T02:51:52;4.60;;;2.50;;
9138;SDS011;4604;48.616;9.548;2023-02-04T02:54:20;2.93;;;1.87;;
9138;SDS011;4604;48.616;9.548;2023-02-04T02:56:49;3.37;;;1.93;;
9138;SDS011;4604;48.616;9.548;2023-02-04T02:59:17;2.43;;;1.77;;
9138;SDS011;4604;48.616;9.548;2023-02-04T03:01:44;4.80;;;2.30;;
9138;SDS011;4604;48.616;9.548;2023-02-04T03:04:14;3.27;;;2.20;;
9138;SDS011;4604;48.616;9.548;2023-02-04T03:06:42;4.07;;;2.03;;
9138;SDS011;4604;48.616;9.548;2023-02-04T03:09:09;3.03;;;1.63;;
9138;SDS011;4604;48.616;9.548;2023-02-04T03:11:36;7.47;;;2.37;;
9138;SDS011;4604;48.616;9.548;2023-02-04T03:14:03;4.50;;;2.10;;
9138;SDS011;4604;48.616;9.548;2023-02-04T03:16:32;4.70;;;1.83;;
9138;SDS011;4604;48.616;9.548;2023-02-04T03:19:01;4.20;;;2.10;;
9138;SDS011;4604;48.616;9.548;2023-02-04T03:21:29;5.17;;;2.30;;
9138;SDS011;4604;48.616;9.548;2023-02-04T03:23:56;7.43;;;2.63;;
9138;SDS011;4604;48.616;9.548;2023-02-04T03:26:23;8.97;;;2.90;;
9138;SDS011;4604;48.616;9.548;2023-02-04T03:28:52;6.33;;;2.37;;
9138;SDS011;4604;48.616;9.548;2023-02-04T03:31:19;9.50;;;2.10;;
9138;SDS011;4604;48.616;9.548;2023-02-04T03:33:47;6.83;;;2.47;;
9138;SDS011;4604;48.616;9.548;2023-02-04T03:36:14;10.13;;;2.00;;
9138;SDS011;4604;48.616;9.548;2023-02-04T03:38:41;10.87;;;2.27;;
9138;SDS011;4604;48.616;9.548;2023-02-04T03:41:07;3.40;;;2.13;;
9138;SDS011;4604;48.616;9.548;2023-02-04T03:43:34;6.90;;;1.97;;
9138;SDS011;4604;48.616;9.548;2023-02-04T03:46:00;4.53;;;2.23;;
9138;SDS011;4604;48.616;9.548;2023-02-04T03:48:27;6.33;;;2.00;;
9138;SDS011;4604;48.616;9.548;2023-02-04T03:50:55;7.00;;;2.37;;
9138;SDS011;4604;48.616;9.548;2023-02-04T03:53:21;2.77;;;2.10;;
9138;SDS011;4604;48.616;9.548;2023-02-04T03:55:48;4.30;;;1.97;;
9138;SDS011;4604;48.616;9.548;2023-02-04T03:58:15;5.77;;;2.37;;
9138;SDS011;4604;48.616;9.548;2023-02-04T04:00:42;4.97;;;2.10;;
9138;SDS011;4604;48.616;9.548;2023-02-04T04:03:08;4.10;;;2.03;;
9138;SDS011;4604;48.616;9.548;2023-02-04T04:05:35;3.70;;;2.07;;
9138;SDS011;4604;48.616;9.548;2023-02-04T04:08:03;6.80;;;2.30;;
9138;SDS011;4604;48.616;9.548;2023-02-04T04:10:30;7.23;;;2.73;;
9138;SDS011;4604;48.616;9.548;2023-02-04T04:12:57;5.60;;;2.80;;
9138;SDS011;4604;48.616;9.548;2023-02-04T04:15:24;11.63;;;2.20;;
9138;SDS011;4604;48.616;9.548;2023-02-04T04:17:50;7.03;;;2.73;;
9138;SDS011;4604;48.616;9.548;2023-02-04T04:20:17;6.07;;;2.00;;
9138;SDS011;4604;48.616;9.548;2023-02-04T04:22:44;4.53;;;2.37;;
9138;SDS011;4604;48.616;9.548;2023-02-04T04:25:12;5.20;;;2.27;;
9138;SDS011;4604;48.616;9.548;2023-02-04T04:27:38;10.50;;;3.13;;
9138;SDS011;4604;48.616;9.548;2023-02-04T04:30:05;7.13;;;2.40;;
9138;SDS011;4604;48.616;9.548;2023-02-04T04:32:32;8.23;;;2.37;;
9138;SDS011;4604;48.616;9.548;2023-02-04T04:34:59;3.80;;;2.20;;
9138;SDS011;4604;48.616;9.548;2023-02-04T04:37:25;7.83;;;2.53;;
9138;SDS011;4604;48.616;9.548;2023-02-04T04:39:52;3.83;;;2.40;;
9138;SDS011;4604;48.616;9.548;2023-02-04T04:42:20;4.17;;;2.63;;
9138;SDS011;4604;48.616;9.548;2023-02-04T04:44:47;14.07;;;2.73;;
9138;SDS011;4604;48.616;9.548;2023-02-04T04:47:13;7.40;;;2.67;;
9138;SDS011;4604;48.616;9.548;2023-02-04T04:49:40;6.03;;;2.40;;
9138;SDS011;4604;48.616;9.548;2023-02-04T04:52:06;3.33;;;2.53;;
9138;SDS011;4604;48.616;9.548;2023-02-04T04:54:34;8.93;;;2.80;;
9138;SDS011;4604;48.616;9.548;2023-02-04T04:57:01;9.60;;;3.30;;
9138;SDS011;4604;48.616;9.548;2023-02-04T04:59:29;9.57;;;2.63;;
9138;SDS011;4604;48.616;9.548;2023-02-04T05:01:56;10.43;;;3.27;;
9138;SDS011;4604;48.616;9.548;2023-02-04T05:04:22;11.57;;;3.00;;
9138;SDS011;4604;48.616;9.548;2023-02-04T05:06:49;4.97;;;2.83;;
9138;SDS011;4604;48.616;9.548;2023-02-04T05:09:15;5.30;;;2.60;;
9138;SDS011;4604;48.616;9.548;2023-02-04T05:11:42;5.13;;;2.87;;
9138;SDS011;4604;48.616;9.548;2023-02-04T05:14:08;4.63;;;2.67;;
9138;SDS011;4604;48.616;9.548;2023-02-04T05:16:36;9.77;;;3.23;;
9138;SDS011;4604;48.616;9.548;2023-02-04T05:19:03;4.20;;;2.57;;
9138;SDS011;4604;48.616;9.548;2023-02-04T05:21:30;7.33;;;3.03;;
9138;SDS011;4604;48.616;9.548;2023-02-04T05:23:56;8.67;;;3.13;;
9138;SDS011;4604;48.616;9.548;2023-02-04T05:26:23;9.47;;;4.50;;
9138;SDS011;4604;48.616;9.548;2023-02-04T05:28:51;10.23;;;3.47;;
9138;SDS011;4604;48.616;9.548;2023-02-04T05:31:17;11.37;;;3.43;;
9138;SDS011;4604;48.616;9.548;2023-02-04T05:33:45;8.40;;;3.33;;
9138;SDS011;4604;48.616;9.548;2023-02-04T05:36:12;9.47;;;3.20;;
9138;SDS011;4604;48.616;9.548;2023-02-04T05:38:39;11.70;;;3.07;;
9138;SDS011;4604;48.616;9.548;2023-02-04T05:41:05;11.87;;;3.03;;
9138;SDS011;4604;48.616;9.548;2023-02-04T05:43:32;6.80;;;3.10;;
9138;SDS011;4604;48.616;9.548;2023-02-04T05:45:59;8.90;;;3.10;;
9138;SDS011;4604;48.616;9.548;2023-02-04T05:48:26;7.27;;;3.03;;
9138;SDS011;4604;48.616;9.548;2023-02-04T05:50:54;8.53;;;3.20;;
9138;SDS011;4604;48.616;9.548;2023-02-04T05:53:20;11.43;;;3.57;;
9138;SDS011;4604;48.616;9.548;2023-02-04T05:55:47;13.60;;;3.57;;
9138;SDS011;4604;48.616;9.548;2023-02-04T05:58:14;5.23;;;3.10;;
9138;SDS011;4604;48.616;9.548;2023-02-04T06:00:40;6.17;;;3.50;;
9138;SDS011;4604;48.616;9.548;2023-02-04T06:03:07;7.80;;;3.30;;
9138;SDS011;4604;48.616;9.548;2023-02-04T06:05:34;8.20;;;3.70;;
9138;SDS011;4604;48.616;9.548;2023-02-04T06:08:02;10.17;;;3.97;;
9138;SDS011;4604;48.616;9.548;2023-02-04T06:10:28;10.33;;;4.10;;
9138;SDS011;4604;48.616;9.548;2023-02-04T06:12:55;9.43;;;3.93;;
9138;SDS011;4604;48.616;9.548;2023-02-04T06:15:22;8.17;;;4.20;;
9138;SDS011;4604;48.616;9.548;2023-02-04T06:17:48;10.30;;;4.13;;
9138;SDS011;4604;48.616;9.548;2023-02-04T06:20:15;9.23;;;4.03;;
9138;SDS011;4604;48.616;9.548;2023-02-04T06:22:42;9.70;;;3.30;;
9138;SDS011;4604;48.616;9.548;2023-02-04T06:25:10;7.83;;;3.70;;
9138;SDS011;4604;48.616;9.548;2023-02-04T06:27:36;10.02;;;3.88;;
9138;SDS011;4604;48.616;9.548;2023-02-04T06:30:03;12.07;;;3.70;;
9138;SDS011;4604;48.616;9.548;2023-02-04T06:32:30;9.50;;;3.13;;
9138;SDS011;4604;48.616;9.548;2023-02-04T06:34:57;6.87;;;3.50;;
9138;SDS011;4604;48.616;9.548;2023-02-04T06:37:23;8.93;;;4.27;;
9138;SDS011;4604;48.616;9.548;2023-02-04T06:39:50;6.53;;;3.27;;
9138;SDS011;4604;48.616;9.548;2023-02-04T06:42:20;7.07;;;3.90;;
9138;SDS011;4604;48.616;9.548;2023-02-04T06:44:46;5.73;;;3.33;;
9138;SDS011;4604;48.616;9.548;2023-02-04T06:47:13;7.47;;;3.27;;
9138;SDS011;4604;48.616;9.548;2023-02-04T06:49:39;6.97;;;4.13;;
9138;SDS011;4604;48.616;9.548;2023-02-04T06:52:06;9.30;;;3.87;;
9138;SDS011;4604;48.616;9.548;2023-02-04T06:54:33;10.53;;;4.07;;
9138;SDS011;4604;48.616;9.548;2023-02-04T06:57:00;8.60;;;3.40;;
9138;SDS011;4604;48.616;9.548;2023-02-04T06:59:32;7.63;;;3.43;;
9138;SDS011;4604;48.616;9.548;2023-02-04T07:01:59;9.20;;;3.57;;
9138;SDS011;4604;48.616;9.548;2023-02-04T07:04:25;10.00;;;4.10;;
9138;SDS011;4604;48.616;9.548;2023-02-04T07:06:52;11.37;;;4.20;;
9138;SDS011;4604;48.616;9.548;2023-02-04T07:09:19;10.07;;;4.27;;
9138;SDS011;4604;48.616;9.548;2023-02-04T07:11:46;13.87;;;5.80;;
9138;SDS011;4604;48.616;9.548;2023-02-04T07:14:12;11.23;;;5.83;;
9138;SDS011;4604;48.616;9.548;2023-02-04T07:16:40;11.93;;;5.70;;
9138;SDS011;4604;48.616;9.548;2023-02-04T07:19:07;11.23;;;5.40;;
9138;SDS011;4604;48.616;9.548;2023-02-04T07:21:33;12.43;;;5.20;;
9138;SDS011;4604;48.616;9.548;2023-02-04T07:24:00;9.23;;;4.70;;
9138;SDS011;4604;48.616;9.548;2023-02-04T07:26:27;10.03;;;5.70;;
9138;SDS011;4604;48.616;9.548;2023-02-04T07:28:54;17.93;;;5.53;;
9138;SDS011;4604;48.616;9.548;2023-02-04T07:31:20;11.47;;;5.10;;
9138;SDS011;4604;48.616;9.548;2023-02-04T07:33:48;9.87;;;4.07;;
9138;SDS011;4604;48.616;9.548;2023-02-04T07:36:15;9.63;;;4.03;;
9138;SDS011;4604;48.616;9.548;2023-02-04T07:38:42;11.67;;;4.20;;
9138;SDS011;4604;48.616;9.548;2023-02-04T07:41:08;13.00;;;4.00;;
9138;SDS011;4604;48.616;9.548;2023-02-04T07:43:35;7.43;;;3.83;;
9138;SDS011;4604;48.616;9.548;2023-02-04T07:46:02;10.40;;;4.70;;
9138;SDS011;4604;48.616;9.548;2023-02-04T07:48:28;10.33;;;4.40;;
9138;SDS011;4604;48.616;9.548;2023-02-04T07:50:56;8.60;;;4.10;;
9138;SDS011;4604;48.616;9.548;2023-02-04T07:53:23;13.23;;;4.80;;
9138;SDS011;4604;48.616;9.548;2023-02-04T07:55:49;22.10;;;10.03;;
9138;SDS011;4604;48.616;9.548;2023-02-04T07:58:17;11.30;;;5.83;;
9138;SDS011;4604;48.616;9.548;2023-02-04T08:00:43;14.13;;;6.20;;
9138;SDS011;4604;48.616;9.548;2023-02-04T08:03:10;11.47;;;5.80;;
9138;SDS011;4604;48.616;9.548;2023-02-04T08:05:37;12.80;;;5.77;;
9138;SDS011;4604;48.616;9.548;2023-02-04T08:08:04;12.13;;;5.87;;
9138;SDS011;4604;48.616;9.548;2023-02-04T08:10:31;8.90;;;3.83;;
9138;SDS011;4604;48.616;9.548;2023-02-04T08:12:58;16.13;;;3.90;;
9138;SDS011;4604;48.616;9.548;2023-02-04T08:15:24;10.40;;;3.47;;
9138;SDS011;4604;48.616;9.548;2023-02-04T08:17:51;9.07;;;3.17;;
9138;SDS011;4604;48.616;9.548;2023-02-04T08:20:18;12.97;;;3.13;;
9138;SDS011;4604;48.616;9.548;2023-02-04T08:22:44;11.40;;;3.63;;
9138;SDS011;4604;48.616;9.548;2023-02-04T08:25:12;7.00;;;2.83;;
9138;SDS011;4604;48.616;9.548;2023-02-04T08:27:39;6.57;;;2.43;;
9138;SDS011;4604;48.616;9.548;2023-02-04T08:30:07;4.13;;;2.47;;
9138;SDS011;4604;48.616;9.548;2023-02-04T08:32:34;13.27;;;3.20;;
9138;SDS011;4604;48.616;9.548;2023-02-04T08:35:01;5.90;;;2.97;;
9138;SDS011;4604;48.616;9.548;2023-02-04T08:37:27;9.27;;;3.37;;
9138;SDS011;4604;48.616;9.548;2023-02-04T08:39:54;8.43;;;2.93;;
9138;SDS011;4604;48.616;9.548;2023-02-04T08:42:22;13.90;;;3.60;;
9138;SDS011;4604;48.616;9.548;2023-02-04T08:44:49;6.43;;;3.10;;
9138;SDS011;4604;48.616;9.548;2023-02-04T08:47:15;11.47;;;3.67;;
9138;SDS011;4604;48.616;9.548;2023-02-04T08:49:42;4.53;;;2.40;;
9138;SDS011;4604;48.616;9.548;2023-02-04T08:52:09;7.87;;;3.33;;
9138;SDS011;4604;48.616;9.548;2023-02-04T08:54:35;11.20;;;3.00;;
9138;SDS011;4604;48.616;9.548;2023-02-04T08:57:02;8.57;;;2.90;;
9138;SDS011;4604;48.616;9.548;2023-02-04T08:59:30;6.80;;;2.90;;
9138;SDS011;4604;48.616;9.548;2023-02-04T09:01:56;11.70;;;2.70;;
9138;SDS011;4604;48.616;9.548;2023-02-04T09:04:23;7.67;;;2.80;;
9138;SDS011;4604;48.616;9.548;2023-02-04T09:06:50;13.03;;;2.77;;
9138;SDS011;4604;48.616;9.548;2023-02-04T09:09:16;8.93;;;2.90;;
9138;SDS011;4604;48.616;9.548;2023-02-04T09:11:43;8.10;;;2.90;;
9138;SDS011;4604;48.616;9.548;2023-02-04T09:14:10;9.30;;;2.73;;
9138;SDS011;4604;48.616;9.548;2023-02-04T09:16:38;8.13;;;2.70;;
9138;SDS011;4604;48.616;9.548;2023-02-04T09:19:05;8.13;;;2.90;;
9138;SDS011;4604;48.616;9.548;2023-02-04T09:21:35;7.67;;;3.10;;
9138;SDS011;4604;48.616;9.548;2023-02-04T09:24:01;8.47;;;2.70;;
9138;SDS011;4604;48.616;9.548;2023-02-04T09:26:28;5.90;;;2.27;;
9138;SDS011;4604;48.616;9.548;2023-02-04T09:28:55;12.60;;;3.23;;
9138;SDS011;4604;48.616;9.548;2023-02-04T09:31:21;9.67;;;2.80;;
9138;SDS011;4604;48.616;9.548;2023-02-04T09:33:49;5.93;;;2.30;;
9138;SDS011;4604;48.616;9.548;2023-02-04T09:36:16;6.17;;;2.40;;
9138;SDS011;4604;48.616;9.548;2023-02-04T09:38:42;14.23;;;2.67;;
9138;SDS011;4604;48.616;9.548;2023-02-04T09:41:09;9.33;;;2.77;;
9138;SDS011;4604;48.616;9.548;2023-02-04T09:43:38;7.77;;;2.83;;
9138;SDS011;4604;48.616;9.548;2023-02-04T09:46:07;7.53;;;2.33;;
9138;SDS011;4604;48.616;9.548;2023-02-04T09:48:40;11.73;;;2.50;;
9138;SDS011;4604;48.616;9.548;2023-02-04T09:51:09;8.87;;;2.63;;
9138;SDS011;4604;48.616;9.548;2023-02-04T09:53:40;9.20;;;2.47;;
9138;SDS011;4604;48.616;9.548;2023-02-04T09:56:08;11.57;;;2.97;;
9138;SDS011;4604;48.616;9.548;2023-02-04T09:58:35;7.70;;;2.80;;
9138;SDS011;4604;48.616;9.548;2023-02-04T10:01:04;9.20;;;2.77;;
9138;SDS011;4604;48.616;9.548;2023-02-04T10:03:38;6.80;;;1.90;;
9138;SDS011;4604;48.616;9.548;2023-02-04T10:06:11;6.03;;;2.30;;
9138;SDS011;4604;48.616;9.548;2023-02-04T10:08:39;6.50;;;2.50;;
9138;SDS011;4604;48.616;9.548;2023-02-04T10:11:07;5.73;;;2.77;;
9138;SDS011;4604;48.616;9.548;2023-02-04T10:13:35;10.03;;;2.70;;
9138;SDS011;4604;48.616;9.548;2023-02-04T10:16:08;9.47;;;2.43;;
9138;SDS011;4604;48.616;9.548;2023-02-04T10:18:39;8.07;;;2.40;;
9138;SDS011;4604;48.616;9.548;2023-02-04T10:21:13;11.37;;;3.33;;
9138;SDS011;4604;48.616;9.548;2023-02-04T10:23:42;10.43;;;2.87;;
9138;SDS011;4604;48.616;9.548;2023-02-04T10:26:11;11.23;;;3.20;;
9138;SDS011;4604;48.616;9.548;2023-02-04T10:28:38;12.53;;;3.83;;
9138;SDS011;4604;48.616;9.548;2023-02-04T10:31:05;7.73;;;3.20;;
9138;SDS011;4604;48.616;9.548;2023-02-04T10:34:00;6.70;;;2.90;;
9138;SDS011;4604;48.616;9.548;2023-02-04T10:36:29;6.03;;;2.80;;
9138;SDS011;4604;48.616;9.548;2023-02-04T10:38:59;10.03;;;3.10;;
9138;SDS011;4604;48.616;9.548;2023-02-04T10:41:26;10.73;;;3.00;;
9138;SDS011;4604;48.616;9.548;2023-02-04T10:43:54;11.47;;;3.27;;
9138;SDS011;4604;48.616;9.548;2023-02-04T10:46:28;13.27;;;3.20;;
9138;SDS011;4604;48.616;9.548;2023-02-04T10:48:55;8.67;;;2.63;;
9138;SDS011;4604;48.616;9.548;2023-02-04T10:51:22;11.50;;;2.67;;
9138;SDS011;4604;48.616;9.548;2023-02-04T10:53:50;9.87;;;2.30;;
9138;SDS011;4604;48.616;9.548;2023-02-04T10:56:34;12.67;;;2.43;;
9138;SDS011;4604;48.616;9.548;2023-02-04T10:59:01;11.10;;;2.97;;
9138;SDS011;4604;48.616;9.548;2023-02-04T11:01:28;12.03;;;2.30;;
9138;SDS011;4604;48.616;9.548;2023-02-04T11:03:55;10.77;;;2.37;;
9138;SDS011;4604;48.616;9.548;2023-02-04T11:06:22;11.57;;;2.37;;
9138;SDS011;4604;48.616;9.548;2023-02-04T11:08:51;6.40;;;2.43;;
9138;SDS011;4604;48.616;9.548;2023-02-04T11:11:20;17.30;;;3.07;;
9138;SDS011;4604;48.616;9.548;2023-02-04T11:13:57;9.80;;;2.50;;
9138;SDS011;4604;48.616;9.548;2023-02-04T11:16:26;8.17;;;2.50;;
9138;SDS011;4604;48.616;9.548;2023-02-04T11:18:55;4.23;;;2.20;;
9138;SDS011;4604;48.616;9.548;2023-02-04T11:21:25;8.27;;;1.90;;
9138;SDS011;4604;48.616;9.548;2023-02-04T11:24:04;6.00;;;2.37;;
9138;SDS011;4604;48.616;9.548;2023-02-04T11:26:46;9.50;;;2.70;;
9138;SDS011;4604;48.616;9.548;2023-02-04T11:32:00;8.97;;;2.73;;
9138;SDS011;4604;48.616;9.548;2023-02-04T11:34:30;13.77;;;3.43;;
9138;SDS011;4604;48.616;9.548;2023-02-04T11:40:00;6.63;;;2.37;;
9138;SDS011;4604;48.616;9.548;2023-02-04T11:42:45;6.93;;;2.47;;
9138;SDS011;4604;48.616;9.548;2023-02-04T11:45:13;10.20;;;2.03;;
9138;SDS011;4604;48.616;9.548;2023-02-04T11:47:42;7.80;;;2.27;;
9138;SDS011;4604;48.616;9.548;2023-02-04T11:50:14;9.20;;;2.10;;
9138;SDS011;4604;48.616;9.548;2023-02-04T11:52:44;8.20;;;1.90;;
9138;SDS011;4604;48.616;9.548;2023-02-04T11:55:12;8.97;;;2.20;;
9138;SDS011;4604;48.616;9.548;2023-02-04T11:57:39;7.13;;;2.10;;
9138;SDS011;4604;48.616;9.548;2023-02-04T12:00:14;8.70;;;2.20;;
9138;SDS011;4604;48.616;9.548;2023-02-04T12:02:43;7.87;;;2.63;;
9138;SDS011;4604;48.616;9.548;2023-02-04T12:05:12;6.03;;;2.43;;
9138;SDS011;4604;48.616;9.548;2023-02-04T12:07:40;7.63;;;2.23;;
9138;SDS011;4604;48.616;9.548;2023-02-04T12:10:13;6.10;;;2.57;;
9138;SDS011;4604;48.616;9.548;2023-02-04T12:12:48;9.00;;;2.60;;
9138;SDS011;4604;48.616;9.548;2023-02-04T12:15:19;8.37;;;2.20;;
9138;SDS011;4604;48.616;9.548;2023-02-04T12:17:58;7.60;;;2.23;;
9138;SDS011;4604;48.616;9.548;2023-02-04T12:20:25;10.30;;;2.63;;
9138;SDS011;4604;48.616;9.548;2023-02-04T12:22:52;5.57;;;2.13;;
9138;SDS011;4604;48.616;9.548;2023-02-04T12:25:20;12.77;;;2.93;;
9138;SDS011;4604;48.616;9.548;2023-02-04T12:27:47;8.50;;;2.20;;
9138;SDS011;4604;48.616;9.548;2023-02-04T12:30:14;9.57;;;2.13;;
9138;SDS011;4604;48.616;9.548;2023-02-04T12:32:42;7.53;;;2.20;;
9138;SDS011;4604;48.616;9.548;2023-02-04T12:35:09;11.53;;;2.70;;
9138;SDS011;4604;48.616;9.548;2023-02-04T12:37:35;10.67;;;2.13;;
9138;SDS011;4604;48.616;9.548;2023-02-04T12:40:02;6.60;;;1.90;;
9138;SDS011;4604;48.616;9.548;2023-02-04T12:42:30;7.73;;;2.30;;
9138;SDS011;4604;48.616;9.548;2023-02-04T12:44:57;11.43;;;2.33;;
9138;SDS011;4604;48.616;9.548;2023-02-04T12:47:24;5.37;;;2.20;;
9138;SDS011;4604;48.616;9.548;2023-02-04T12:49:51;9.97;;;2.40;;
9138;SDS011;4604;48.616;9.548;2023-02-04T12:52:18;5.63;;;2.30;;
9138;SDS011;4604;48.616;9.548;2023-02-04T12:54:44;7.57;;;2.70;;
9138;SDS011;4604;48.616;9.548;2023-02-04T12:57:11;8.87;;;2.20;;
9138;SDS011;4604;48.616;9.548;2023-02-04T12:59:45;4.17;;;2.03;;
9138;SDS011;4604;48.616;9.548;2023-02-04T13:02:11;8.57;;;2.37;;
9138;SDS011;4604;48.616;9.548;2023-02-04T13:04:38;4.70;;;2.10;;
9138;SDS011;4604;48.616;9.548;2023-02-04T13:07:05;8.80;;;2.50;;
9138;SDS011;4604;48.616;9.548;2023-02-04T13:09:32;6.37;;;1.87;;
9138;SDS011;4604;48.616;9.548;2023-02-04T13:11:59;10.00;;;3.03;;
9138;SDS011;4604;48.616;9.548;2023-02-04T13:14:25;6.47;;;2.67;;
9138;SDS011;4604;48.616;9.548;2023-02-04T13:16:53;6.70;;;2.20;;
9138;SDS011;4604;48.616;9.548;2023-02-04T13:19:20;6.97;;;3.10;;
9138;SDS011;4604;48.616;9.548;2023-02-04T13:21:46;13.60;;;3.40;;
9138;SDS011;4604;48.616;9.548;2023-02-04T13:24:13;7.90;;;2.40;;
9138;SDS011;4604;48.616;9.548;2023-02-04T13:26:41;7.67;;;3.17;;
9138;SDS011;4604;48.616;9.548;2023-02-04T13:29:07;9.23;;;3.00;;
9138;SDS011;4604;48.616;9.548;2023-02-04T13:31:34;14.90;;;2.93;;
9138;SDS011;4604;48.616;9.548;2023-02-04T13:34:02;6.20;;;2.23;;
9138;SDS011;4604;48.616;9.548;2023-02-04T13:36:29;11.63;;;3.03;;
9138;SDS011;4604;48.616;9.548;2023-02-04T13:38:55;5.17;;;2.43;;
9138;SDS011;4604;48.616;9.548;2023-02-04T13:41:24;9.63;;;2.87;;
9138;SDS011;4604;48.616;9.548;2023-02-04T13:43:51;11.23;;;2.67;;
9138;SDS011;4604;48.616;9.548;2023-02-04T13:46:18;12.37;;;2.33;;
9138;SDS011;4604;48.616;9.548;2023-02-04T13:48:46;11.47;;;2.90;;
9138;SDS011;4604;48.616;9.548;2023-02-04T13:51:15;6.47;;;3.00;;
9138;SDS011;4604;48.616;9.548;2023-02-04T13:53:42;5.80;;;2.50;;
9138;SDS011;4604;48.616;9.548;2023-02-04T13:56:09;7.13;;;2.40;;
9138;SDS011;4604;48.616;9.548;2023-02-04T13:58:36;5.00;;;2.53;;
9138;SDS011;4604;48.616;9.548;2023-02-04T14:01:07;8.90;;;2.30;;
9138;SDS011;4604;48.616;9.548;2023-02-04T14:03:34;7.40;;;3.13;;
9138;SDS011;4604;48.616;9.548;2023-02-04T14:06:01;8.53;;;2.80;;
9138;SDS011;4604;48.616;9.548;2023-02-04T14:08:29;9.13;;;2.43;;
9138;SDS011;4604;48.616;9.548;2023-02-04T14:10:55;7.37;;;2.20;;
9138;SDS011;4604;48.616;9.548;2023-02-04T14:13:22;5.83;;;2.43;;
9138;SDS011;4604;48.616;9.548;2023-02-04T14:15:49;5.57;;;2.23;;
9138;SDS011;4604;48.616;9.548;2023-02-04T14:18:15;6.43;;;2.47;;
9138;SDS011;4604;48.616;9.548;2023-02-04T14:20:42;5.53;;;2.33;;
9138;SDS011;4604;48.616;9.548;2023-02-04T14:23:09;6.03;;;2.00;;
9138;SDS011;4604;48.616;9.548;2023-02-04T14:25:37;5.60;;;1.87;;
9138;SDS011;4604;48.616;9.548;2023-02-04T14:28:04;5.63;;;2.73;;
9138;SDS011;4604;48.616;9.548;2023-02-04T14:30:31;3.83;;;2.43;;
9138;SDS011;4604;48.616;9.548;2023-02-04T14:32:58;5.57;;;2.70;;
9138;SDS011;4604;48.616;9.548;2023-02-04T14:35:25;7.53;;;2.20;;
9138;SDS011;4604;48.616;9.548;2023-02-04T14:37:52;5.00;;;2.80;;
9138;SDS011;4604;48.616;9.548;2023-02-04T14:40:19;4.17;;;2.03;;
9138;SDS011;4604;48.616;9.548;2023-02-04T14:42:48;8.87;;;2.50;;
9138;SDS011;4604;48.616;9.548;2023-02-04T14:45:14;5.23;;;1.87;;
9138;SDS011;4604;48.616;9.548;2023-02-04T14:47:41;10.57;;;2.07;;
9138;SDS011;4604;48.616;9.548;2023-02-04T14:50:10;3.87;;;2.20;;
9138;SDS011;4604;48.616;9.548;2023-02-04T14:52:38;9.23;;;3.17;;
9138;SDS011;4604;48.616;9.548;2023-02-04T14:55:05;6.40;;;2.07;;
9138;SDS011;4604;48.616;9.548;2023-02-04T14:57:34;8.40;;;2.30;;
9138;SDS011;4604;48.616;9.548;2023-02-04T15:00:02;11.13;;;3.00;;
9138;SDS011;4604;48.616;9.548;2023-02-04T15:02:29;8.47;;;2.63;;
9138;SDS011;4604;48.616;9.548;2023-02-04T15:04:56;6.67;;;2.70;;
9138;SDS011;4604;48.616;9.548;2023-02-04T15:07:22;9.63;;;2.80;;
9138;SDS011;4604;48.616;9.548;2023-02-04T15:09:49;7.53;;;2.80;;
9138;SDS011;4604;48.616;9.548;2023-02-04T15:12:15;5.13;;;2.20;;
9138;SDS011;4604;48.616;9.548;2023-02-04T15:14:42;9.03;;;2.77;;
9138;SDS011;4604;48.616;9.548;2023-02-04T15:17:10;12.73;;;3.40;;
9138;SDS011;4604;48.616;9.548;2023-02-04T15:19:37;10.30;;;4.47;;
9138;SDS011;4604;48.616;9.548;2023-02-04T15:22:03;7.13;;;2.87;;